sensor_id;sensor_type;location;lat;lon;timestamp;pressure;altitude;pressure_sealevel;temperature;humidity
61678;BME280;47575;52.054;4.334;2022-09-14T00:01:12;100948.13;;;16.43;100.00
61678;BME280;47575;52.054;4.334;2022-09-14T00:03:40;100949.19;;;16.39;100.00
61678;BME280;47575;52.054;4.334;2022-09-14T00:06:09;100956.22;;;16.40;100.00
61678;BME280;47575;52.054;4.334;2022-09-14T00:08:37;100951.69;;;16.42;100.00
61678;BME280;47575;52.054;4.334;2022-09-14T00:11:06;100956.13;;;16.41;100.00
61678;BME280;47575;52.054;4.334;2022-09-14T00:13:35;100949.56;;;16.32;100.00
61678;BME280;47575;52.054;4.334;2022-09-14T00:16:05;100962.69;;;16.34;100.00
61678;BME280;47575;52.054;4.334;2022-09-14T00:18:33;100964.38;;;16.35;100.00
61678;BME280;47575;52.054;4.334;2022-09-14T00:21:01;100961.06;;;16.31;100.00
61678;BME280;47575;52.054;4.334;2022-09-14T00:23:29;100956.78;;;16.29;100.00
61678;BME280;47575;52.054;4.334;2022-09-14T00:26:01;100953.16;;;16.31;100.00
61678;BME280;47575;52.054;4.334;2022-09-14T00:28:28;100949.13;;;16.24;100.00
61678;BME280;47575;52.054;4.334;2022-09-14T00:30:55;100945.56;;;16.25;100.00
61678;BME280;47575;52.054;4.334;2022-09-14T00:33:24;100947.25;;;16.26;100.00
61678;BME280;47575;52.054;4.334;2022-09-14T00:35:51;100944.69;;;16.25;100.00
61678;BME280;47575;52.054;4.334;2022-09-14T00:38:18;100942.81;;;16.27;100.00
61678;BME280;47575;52.054;4.334;2022-09-14T00:40:55;100945.22;;;16.31;100.00
61678;BME280;47575;52.054;4.334;2022-09-14T00:43:22;100935.56;;;16.30;100.00
61678;BME280;47575;52.054;4.334;2022-09-14T00:45:50;100934.56;;;16.33;100.00
61678;BME280;47575;52.054;4.334;2022-09-14T00:48:17;100934.91;;;16.27;100.00
61678;BME280;47575;52.054;4.334;2022-09-14T00:50:46;100929.38;;;16.31;100.00
61678;BME280;47575;52.054;4.334;2022-09-14T00:53:14;100930.28;;;16.30;100.00
61678;BME280;47575;52.054;4.334;2022-09-14T00:55:41;100927.63;;;16.30;100.00
61678;BME280;47575;52.054;4.334;2022-09-14T00:58:08;100920.56;;;16.31;100.00
61678;BME280;47575;52.054;4.334;2022-09-14T01:00:35;100918.34;;;16.23;100.00
61678;BME280;47575;52.054;4.334;2022-09-14T01:03:03;100912.47;;;16.18;100.00
61678;BME280;47575;52.054;4.334;2022-09-14T01:05:40;100905.50;;;16.17;100.00
61678;BME280;47575;52.054;4.334;2022-09-14T01:08:27;100901.91;;;16.18;100.00
61678;BME280;47575;52.054;4.334;2022-09-14T01:11:09;100907.28;;;16.17;100.00
61678;BME280;47575;52.054;4.334;2022-09-14T01:13:44;100897.22;;;16.23;100.00
61678;BME280;47575;52.054;4.334;2022-09-14T01:16:20;100894.66;;;16.22;100.00
61678;BME280;47575;52.054;4.334;2022-09-14T01:18:54;100897.41;;;16.20;100.00
61678;BME280;47575;52.054;4.334;2022-09-14T01:21:25;100885.88;;;16.21;100.00
61678;BME280;47575;52.054;4.334;2022-09-14T01:24:00;100889.22;;;16.25;100.00
61678;BME280;47575;52.054;4.334;2022-09-14T01:26:38;100880.19;;;16.29;100.00
61678;BME280;47575;52.054;4.334;2022-09-14T01:29:13;100876.34;;;16.34;100.00
61678;BME280;47575;52.054;4.334;2022-09-14T01:31:48;100876.34;;;16.34;100.00
61678;BME280;47575;52.054;4.334;2022-09-14T01:34:24;100874.31;;;16.40;100.00
61678;BME280;47575;52.054;4.334;2022-09-14T01:36:56;100871.75;;;16.38;100.00
61678;BME280;47575;52.054;4.334;2022-09-14T01:39:27;100865.47;;;16.41;100.00
61678;BME280;47575;52.054;4.334;2022-09-14T01:41:57;100867.41;;;16.37;100.00
61678;BME280;47575;52.054;4.334;2022-09-14T01:44:31;100878.81;;;16.38;100.00
61678;BME280;47575;52.054;4.334;2022-09-14T01:47:03;100873.81;;;16.33;100.00
61678;BME280;47575;52.054;4.334;2022-09-14T01:49:36;100875.31;;;16.37;100.00
61678;BME280;47575;52.054;4.334;2022-09-14T01:52:09;100868.25;;;16.38;100.00
61678;BME280;47575;52.054;4.334;2022-09-14T01:54:42;100872.69;;;16.37;100.00
61678;BME280;47575;52.054;4.334;2022-09-14T01:57:13;100861.53;;;16.32;100.00
61678;BME280;47575;52.054;4.334;2022-09-14T01:59:45;100857.78;;;16.36;100.00
61678;BME280;47575;52.054;4.334;2022-09-14T02:02:15;100862.97;;;16.38;100.00
61678;BME280;47575;52.054;4.334;2022-09-14T02:04:46;100848.91;;;16.37;100.00
61678;BME280;47575;52.054;4.334;2022-09-14T02:07:14;100856.94;;;16.36;100.00
61678;BME280;47575;52.054;4.334;2022-09-14T02:09:42;100846.44;;;16.34;100.00
61678;BME280;47575;52.054;4.334;2022-09-14T02:12:10;100851.13;;;16.29;100.00
61678;BME280;47575;52.054;4.334;2022-09-14T02:14:38;100847.47;;;16.31;100.00
61678;BME280;47575;52.054;4.334;2022-09-14T02:17:06;100844.84;;;16.31;100.00
61678;BME280;47575;52.054;4.334;2022-09-14T02:19:37;100853.63;;;16.32;100.00
61678;BME280;47575;52.054;4.334;2022-09-14T02:22:06;100853.63;;;16.32;100.00
61678;BME280;47575;52.054;4.334;2022-09-14T02:24:34;100849.34;;;16.29;100.00
61678;BME280;47575;52.054;4.334;2022-09-14T02:27:01;100846.59;;;16.31;100.00
61678;BME280;47575;52.054;4.334;2022-09-14T02:29:29;100842.03;;;16.34;100.00
61678;BME280;47575;52.054;4.334;2022-09-14T02:32:05;100841.78;;;16.39;100.00
61678;BME280;47575;52.054;4.334;2022-09-14T02:34:45;100836.81;;;16.33;100.00
61678;BME280;47575;52.054;4.334;2022-09-14T02:37:18;100825.56;;;16.29;100.00
61678;BME280;47575;52.054;4.334;2022-09-14T02:39:55;100838.78;;;16.29;100.00
61678;BME280;47575;52.054;4.334;2022-09-14T02:42:33;100830.28;;;16.24;100.00
61678;BME280;47575;52.054;4.334;2022-09-14T02:45:08;100822.41;;;16.23;100.00
61678;BME280;47575;52.054;4.334;2022-09-14T02:47:44;100814.69;;;16.20;100.00
61678;BME280;47575;52.054;4.334;2022-09-14T02:50:20;100814.69;;;16.20;100.00
61678;BME280;47575;52.054;4.334;2022-09-14T02:52:52;100821.47;;;16.24;100.00
61678;BME280;47575;52.054;4.334;2022-09-14T02:55:24;100819.78;;;16.23;100.00
61678;BME280;47575;52.054;4.334;2022-09-14T02:57:58;100820.63;;;16.23;100.00
61678;BME280;47575;52.054;4.334;2022-09-14T03:00:26;100813.06;;;16.17;100.00
61678;BME280;47575;52.054;4.334;2022-09-14T03:02:54;100812.22;;;16.17;100.00
61678;BME280;47575;52.054;4.334;2022-09-14T03:05:23;100808.78;;;16.15;100.00
61678;BME280;47575;52.054;4.334;2022-09-14T03:07:50;100805.28;;;16.14;100.00
61678;BME280;47575;52.054;4.334;2022-09-14T03:10:17;100799.16;;;16.14;100.00
61678;BME280;47575;52.054;4.334;2022-09-14T03:12:45;100798.13;;;16.16;100.00
61678;BME280;47575;52.054;4.334;2022-09-14T03:15:12;100799.00;;;16.17;100.00
61678;BME280;47575;52.054;4.334;2022-09-14T03:17:44;100799.06;;;16.15;100.00
61678;BME280;47575;52.054;4.334;2022-09-14T03:20:11;100796.28;;;16.18;100.00
61678;BME280;47575;52.054;4.334;2022-09-14T03:22:40;100792.00;;;16.16;100.00
61678;BME280;47575;52.054;4.334;2022-09-14T03:25:08;100789.63;;;16.11;100.00
61678;BME280;47575;52.054;4.334;2022-09-14T03:27:35;100779.84;;;16.13;100.00
61678;BME280;47575;52.054;4.334;2022-09-14T03:30:03;100776.09;;;16.17;100.00
61678;BME280;47575;52.054;4.334;2022-09-14T03:32:31;100770.22;;;16.12;100.00
61678;BME280;47575;52.054;4.334;2022-09-14T03:34:58;100769.97;;;16.17;100.00
61678;BME280;47575;52.054;4.334;2022-09-14T03:37:26;100763.75;;;16.18;100.00
61678;BME280;47575;52.054;4.334;2022-09-14T03:39:55;100771.47;;;16.21;100.00
61678;BME280;47575;52.054;4.334;2022-09-14T03:42:22;100769.88;;;16.18;100.00
61678;BME280;47575;52.054;4.334;2022-09-14T03:44:49;100762.09;;;16.15;100.00
61678;BME280;47575;52.054;4.334;2022-09-14T03:47:16;100757.94;;;16.11;100.00
61678;BME280;47575;52.054;4.334;2022-09-14T03:49:44;100757.75;;;16.14;100.00
61678;BME280;47575;52.054;4.334;2022-09-14T03:52:11;100755.81;;;16.18;100.00
61678;BME280;47575;52.054;4.334;2022-09-14T03:54:38;100759.75;;;16.11;100.00
61678;BME280;47575;52.054;4.334;2022-09-14T03:57:07;100765.69;;;16.14;100.00
61678;BME280;47575;52.054;4.334;2022-09-14T03:59:34;100761.25;;;16.15;100.00
61678;BME280;47575;52.054;4.334;2022-09-14T04:02:02;100766.19;;;16.21;100.00
61678;BME280;47575;52.054;4.334;2022-09-14T04:04:29;100765.25;;;16.22;100.00
61678;BME280;47575;52.054;4.334;2022-09-14T04:06:57;100762.25;;;16.28;100.00
61678;BME280;47575;52.054;4.334;2022-09-14T04:09:24;100775.66;;;16.25;100.00
61678;BME280;47575;52.054;4.334;2022-09-14T04:11:51;100778.22;;;16.26;100.00
61678;BME280;47575;52.054;4.334;2022-09-14T04:14:20;100771.78;;;16.30;100.00
61678;BME280;47575;52.054;4.334;2022-09-14T04:16:47;100769.16;;;16.30;100.00
61678;BME280;47575;52.054;4.334;2022-09-14T04:19:14;100775.91;;;16.20;100.00
61678;BME280;47575;52.054;4.334;2022-09-14T04:21:41;100774.97;;;16.21;100.00
61678;BME280;47575;52.054;4.334;2022-09-14T04:24:10;100776.66;;;16.22;100.00
61678;BME280;47575;52.054;4.334;2022-09-14T04:26:38;100776.50;;;16.25;100.00
61678;BME280;47575;52.054;4.334;2022-09-14T04:29:06;100773.19;;;16.22;100.00
61678;BME280;47575;52.054;4.334;2022-09-14T04:31:35;100770.44;;;16.23;100.00
61678;BME280;47575;52.054;4.334;2022-09-14T04:34:02;100765.44;;;16.19;100.00
61678;BME280;47575;52.054;4.334;2022-09-14T04:36:29;100761.94;;;16.18;100.00
61678;BME280;47575;52.054;4.334;2022-09-14T04:38:58;100771.56;;;16.19;100.00
61678;BME280;47575;52.054;4.334;2022-09-14T04:41:26;100767.38;;;16.15;100.00
61678;BME280;47575;52.054;4.334;2022-09-14T04:43:55;100766.44;;;16.16;100.00
61678;BME280;47575;52.054;4.334;2022-09-14T04:46:24;100770.13;;;16.14;100.00
61678;BME280;47575;52.054;4.334;2022-09-14T04:48:53;100753.84;;;16.21;100.00
61678;BME280;47575;52.054;4.334;2022-09-14T04:51:22;100759.13;;;16.21;100.00
61678;BME280;47575;52.054;4.334;2022-09-14T04:53:51;100759.31;;;16.18;100.00
61678;BME280;47575;52.054;4.334;2022-09-14T04:56:20;100752.13;;;16.20;100.00
61678;BME280;47575;52.054;4.334;2022-09-14T04:58:48;100754.97;;;16.17;100.00
61678;BME280;47575;52.054;4.334;2022-09-14T05:01:18;100747.72;;;16.21;100.00
61678;BME280;47575;52.054;4.334;2022-09-14T05:03:46;100747.72;;;16.21;100.00
61678;BME280;47575;52.054;4.334;2022-09-14T05:06:16;100747.81;;;16.19;100.00
61678;BME280;47575;52.054;4.334;2022-09-14T05:08:44;100754.38;;;16.12;100.00
61678;BME280;47575;52.054;4.334;2022-09-14T05:11:14;100759.66;;;16.12;100.00
61678;BME280;47575;52.054;4.334;2022-09-14T05:13:42;100752.75;;;16.10;100.00
61678;BME280;47575;52.054;4.334;2022-09-14T05:16:13;100752.81;;;16.08;100.00
61678;BME280;47575;52.054;4.334;2022-09-14T05:18:41;100745.75;;;16.09;100.00
61678;BME280;47575;52.054;4.334;2022-09-14T05:21:13;100754.28;;;16.14;100.00
61678;BME280;47575;52.054;4.334;2022-09-14T05:23:42;100759.31;;;16.18;100.00
61678;BME280;47575;52.054;4.334;2022-09-14T05:26:10;100753.84;;;16.21;100.00
61678;BME280;47575;52.054;4.334;2022-09-14T05:28:38;100744.47;;;16.16;100.00
61678;BME280;47575;52.054;4.334;2022-09-14T05:31:08;100738.28;;;16.17;100.00
61678;BME280;47575;52.054;4.334;2022-09-14T05:33:35;100743.47;;;16.18;100.00
61678;BME280;47575;52.054;4.334;2022-09-14T05:36:05;100751.03;;;16.24;100.00
61678;BME280;47575;52.054;4.334;2022-09-14T05:38:33;100747.91;;;16.18;100.00
61678;BME280;47575;52.054;4.334;2022-09-14T05:41:02;100755.38;;;16.25;100.00
61678;BME280;47575;52.054;4.334;2022-09-14T05:43:30;100760.31;;;16.16;100.00
61678;BME280;47575;52.054;4.334;2022-09-14T05:46:00;100763.56;;;16.21;100.00
61678;BME280;47575;52.054;4.334;2022-09-14T05:48:29;100772.16;;;16.09;100.00
61678;BME280;47575;52.054;4.334;2022-09-14T05:50:58;100761.44;;;16.12;100.00
61678;BME280;47575;52.054;4.334;2022-09-14T05:53:26;100754.13;;;16.17;100.00
61678;BME280;47575;52.054;4.334;2022-09-14T05:56:02;100755.03;;;16.16;100.00
61678;BME280;47575;52.054;4.334;2022-09-14T05:58:30;100751.53;;;16.15;100.00
61678;BME280;47575;52.054;4.334;2022-09-14T06:00:57;100751.72;;;16.12;100.00
61678;BME280;47575;52.054;4.334;2022-09-14T06:03:24;100752.75;;;16.10;100.00
61678;BME280;47575;52.054;4.334;2022-09-14T06:05:56;100742.25;;;16.08;100.00
61678;BME280;47575;52.054;4.334;2022-09-14T06:08:23;100739.06;;;16.03;100.00
61678;BME280;47575;52.054;4.334;2022-09-14T06:10:50;100745.44;;;15.99;100.00
61678;BME280;47575;52.054;4.334;2022-09-14T06:13:19;100758.03;;;15.94;100.00
61678;BME280;47575;52.054;4.334;2022-09-14T06:15:48;100747.13;;;15.84;100.00
61678;BME280;47575;52.054;4.334;2022-09-14T06:18:15;100745.69;;;15.78;100.00
61678;BME280;47575;52.054;4.334;2022-09-14T06:20:49;100760.00;;;15.74;100.00
61678;BME280;47575;52.054;4.334;2022-09-14T06:23:16;100762.47;;;15.77;100.00
61678;BME280;47575;52.054;4.334;2022-09-14T06:25:43;100754.44;;;15.79;100.00
61678;BME280;47575;52.054;4.334;2022-09-14T06:28:11;100759.38;;;15.85;100.00
61678;BME280;47575;52.054;4.334;2022-09-14T06:30:42;100760.41;;;15.98;100.00
61678;BME280;47575;52.054;4.334;2022-09-14T06:33:10;100754.94;;;16.01;100.00
61678;BME280;47575;52.054;4.334;2022-09-14T06:35:37;100761.88;;;16.04;100.00
61678;BME280;47575;52.054;4.334;2022-09-14T06:38:05;100749.25;;;15.93;100.00
61678;BME280;47575;52.054;4.334;2022-09-14T06:40:33;100751.03;;;15.93;100.00
61678;BME280;47575;52.054;4.334;2022-09-14T06:43:00;100753.78;;;16.07;100.00
61678;BME280;47575;52.054;4.334;2022-09-14T06:45:28;100762.78;;;16.19;100.00
61678;BME280;47575;52.054;4.334;2022-09-14T06:47:57;100762.88;;;16.17;100.00
61678;BME280;47575;52.054;4.334;2022-09-14T06:50:24;100767.03;;;16.21;100.00
61678;BME280;47575;52.054;4.334;2022-09-14T06:52:52;100767.81;;;16.23;100.00
61678;BME280;47575;52.054;4.334;2022-09-14T06:55:19;100765.69;;;16.14;100.00
61678;BME280;47575;52.054;4.334;2022-09-14T06:57:47;100755.97;;;16.15;100.00
61678;BME280;47575;52.054;4.334;2022-09-14T07:00:15;100749.28;;;16.09;100.00
61678;BME280;47575;52.054;4.334;2022-09-14T07:02:44;100750.97;;;16.10;100.00
61678;BME280;47575;52.054;4.334;2022-09-14T07:05:13;100754.13;;;16.17;100.00
61678;BME280;47575;52.054;4.334;2022-09-14T07:07:44;100757.94;;;16.11;100.00
61678;BME280;47575;52.054;4.334;2022-09-14T07:10:11;100753.34;;;16.15;100.00
61678;BME280;47575;52.054;4.334;2022-09-14T07:12:38;100753.59;;;16.26;100.00
61678;BME280;47575;52.054;4.334;2022-09-14T07:15:07;100756.78;;;16.31;100.00
61678;BME280;47575;52.054;4.334;2022-09-14T07:17:34;100760.03;;;16.36;100.00
61678;BME280;47575;52.054;4.334;2022-09-14T07:20:03;100764.78;;;16.45;100.00
61678;BME280;47575;52.054;4.334;2022-09-14T07:22:33;100760.63;;;16.41;100.00
61678;BME280;47575;52.054;4.334;2022-09-14T07:25:00;100767.25;;;16.48;100.00
61678;BME280;47575;52.054;4.334;2022-09-14T07:27:28;100761.69;;;16.53;100.00
61678;BME280;47575;52.054;4.334;2022-09-14T07:29:55;100752.81;;;16.40;100.00
61678;BME280;47575;52.054;4.334;2022-09-14T07:32:22;100752.34;;;16.47;100.00
61678;BME280;47575;52.054;4.334;2022-09-14T07:34:49;100759.34;;;16.48;100.00
61678;BME280;47575;52.054;4.334;2022-09-14T07:37:16;100755.06;;;16.46;100.00
61678;BME280;47575;52.054;4.334;2022-09-14T07:39:45;100751.50;;;16.31;100.00
61678;BME280;47575;52.054;4.334;2022-09-14T07:42:12;100751.16;;;16.37;100.00
61678;BME280;47575;52.054;4.334;2022-09-14T07:44:39;100745.22;;;16.33;100.00
61678;BME280;47575;52.054;4.334;2022-09-14T07:47:07;100733.31;;;16.26;100.00
61678;BME280;47575;52.054;4.334;2022-09-14T07:49:34;100728.75;;;16.44;100.00
61678;BME280;47575;52.054;4.334;2022-09-14T07:52:01;100738.59;;;16.56;100.00
61678;BME280;47575;52.054;4.334;2022-09-14T07:54:29;100727.84;;;16.59;100.00
61678;BME280;47575;52.054;4.334;2022-09-14T07:56:57;100731.63;;;16.55;100.00
61678;BME280;47575;52.054;4.334;2022-09-14T07:59:25;100732.72;;;16.51;100.00
61678;BME280;47575;52.054;4.334;2022-09-14T08:01:53;100731.41;;;16.74;100.00
61678;BME280;47575;52.054;4.334;2022-09-14T08:04:20;100727.81;;;16.75;100.00
61678;BME280;47575;52.054;4.334;2022-09-14T08:06:47;100719.88;;;16.75;100.00
61678;BME280;47575;52.054;4.334;2022-09-14T08:09:14;100719.81;;;16.77;100.00
61678;BME280;47575;52.054;4.334;2022-09-14T08:11:41;100719.50;;;16.81;100.00
61678;BME280;47575;52.054;4.334;2022-09-14T08:14:11;100721.22;;;16.82;100.00
61678;BME280;47575;52.054;4.334;2022-09-14T08:16:39;100717.81;;;16.80;100.00
61678;BME280;47575;52.054;4.334;2022-09-14T08:19:10;100715.28;;;16.79;100.00
61678;BME280;47575;52.054;4.334;2022-09-14T08:21:38;100725.31;;;17.02;100.00
61678;BME280;47575;52.054;4.334;2022-09-14T08:24:05;100718.13;;;17.04;100.00
61678;BME280;47575;52.054;4.334;2022-09-14T08:26:33;100720.41;;;17.10;100.00
61678;BME280;47575;52.054;4.334;2022-09-14T08:29:02;100722.28;;;17.08;100.00
61678;BME280;47575;52.054;4.334;2022-09-14T08:31:35;100721.16;;;17.27;100.00
61678;BME280;47575;52.054;4.334;2022-09-14T08:34:03;100723.88;;;17.11;100.00
61678;BME280;47575;52.054;4.334;2022-09-14T08:36:33;100721.06;;;17.28;100.00
61678;BME280;47575;52.054;4.334;2022-09-14T08:39:01;100721.53;;;17.21;100.00
61678;BME280;47575;52.054;4.334;2022-09-14T08:41:30;100705.75;;;17.19;100.00
61678;BME280;47575;52.054;4.334;2022-09-14T08:44:01;100700.47;;;17.33;100.00
61678;BME280;47575;52.054;4.334;2022-09-14T08:46:34;100706.78;;;17.31;100.00
61678;BME280;47575;52.054;4.334;2022-09-14T08:49:05;100706.47;;;17.50;100.00
61678;BME280;47575;52.054;4.334;2022-09-14T08:51:36;100712.44;;;17.53;100.00
61678;BME280;47575;52.054;4.334;2022-09-14T08:54:04;100711.97;;;17.47;100.00
61678;BME280;47575;52.054;4.334;2022-09-14T08:56:32;100702.59;;;17.55;100.00
61678;BME280;47575;52.054;4.334;2022-09-14T08:59:14;100710.75;;;17.52;100.00
61678;BME280;47575;52.054;4.334;2022-09-14T09:01:50;100718.97;;;17.48;100.00
61678;BME280;47575;52.054;4.334;2022-09-14T09:04:27;100713.66;;;17.48;100.00
61678;BME280;47575;52.054;4.334;2022-09-14T09:07:02;100709.81;;;17.39;100.00
61678;BME280;47575;52.054;4.334;2022-09-14T09:09:39;100708.59;;;17.44;100.00
61678;BME280;47575;52.054;4.334;2022-09-14T09:12:12;100710.66;;;17.39;100.00
61678;BME280;47575;52.054;4.334;2022-09-14T09:14:44;100703.19;;;17.46;100.00
61678;BME280;47575;52.054;4.334;2022-09-14T09:17:17;100710.75;;;17.38;100.00
61678;BME280;47575;52.054;4.334;2022-09-14T09:19:55;100711.97;;;17.32;100.00
61678;BME280;47575;52.054;4.334;2022-09-14T09:22:29;100709.06;;;17.37;100.00
61678;BME280;47575;52.054;4.334;2022-09-14T09:24:57;100706.69;;;17.32;100.00
61678;BME280;47575;52.054;4.334;2022-09-14T09:27:24;100700.34;;;17.49;100.00
61678;BME280;47575;52.054;4.334;2022-09-14T09:29:52;100706.31;;;17.53;100.00
61678;BME280;47575;52.054;4.334;2022-09-14T09:32:23;100697.50;;;17.66;100.00
61678;BME280;47575;52.054;4.334;2022-09-14T09:35:13;100696.59;;;17.80;100.00
61678;BME280;47575;52.054;4.334;2022-09-14T09:37:59;100697.50;;;17.66;100.00
61678;BME280;47575;52.054;4.334;2022-09-14T09:40:31;100689.63;;;17.79;100.00
61678;BME280;47575;52.054;4.334;2022-09-14T09:43:08;100680.03;;;17.91;100.00
61678;BME280;47575;52.054;4.334;2022-09-14T09:45:52;100684.81;;;17.71;100.00
61678;BME280;47575;52.054;4.334;2022-09-14T09:48:24;100686.28;;;17.90;100.00
61678;BME280;47575;52.054;4.334;2022-09-14T09:51:01;100682.78;;;17.89;100.00
61678;BME280;47575;52.054;4.334;2022-09-14T09:53:31;100684.34;;;18.06;100.00
61678;BME280;47575;52.054;4.334;2022-09-14T09:56:00;100678.31;;;18.17;100.00
61678;BME280;47575;52.054;4.334;2022-09-14T09:58:30;100684.38;;;18.32;100.00
61678;BME280;47575;52.054;4.334;2022-09-14T10:01:00;100681.22;;;18.26;100.00
61678;BME280;47575;52.054;4.334;2022-09-14T10:03:33;100680.94;;;18.44;100.00
61678;BME280;47575;52.054;4.334;2022-09-14T10:06:02;100682.75;;;18.56;100.00
61678;BME280;47575;52.054;4.334;2022-09-14T10:08:30;100685.75;;;18.24;100.00
61678;BME280;47575;52.054;4.334;2022-09-14T10:11:01;100679.09;;;18.32;100.00
61678;BME280;47575;52.054;4.334;2022-09-14T10:13:30;100688.31;;;18.39;100.00
61678;BME280;47575;52.054;4.334;2022-09-14T10:16:13;100691.22;;;18.61;100.00
61678;BME280;47575;52.054;4.334;2022-09-14T10:18:44;100682.31;;;18.62;100.00
61678;BME280;47575;52.054;4.334;2022-09-14T10:21:13;100681.78;;;18.44;100.00
61678;BME280;47575;52.054;4.334;2022-09-14T10:23:41;100677.47;;;18.56;100.00
61678;BME280;47575;52.054;4.334;2022-09-14T10:26:22;100667.38;;;18.61;100.00
61678;BME280;47575;52.054;4.334;2022-09-14T10:28:51;100669.25;;;18.46;100.00
61678;BME280;47575;52.054;4.334;2022-09-14T10:31:27;100667.25;;;18.37;100.00
61678;BME280;47575;52.054;4.334;2022-09-14T10:33:58;100667.59;;;18.58;100.00
61678;BME280;47575;52.054;4.334;2022-09-14T10:36:29;100665.31;;;18.79;100.00
61678;BME280;47575;52.054;4.334;2022-09-14T10:39:02;100662.31;;;18.84;100.00
61678;BME280;47575;52.054;4.334;2022-09-14T10:41:41;100661.03;;;18.64;100.00
61678;BME280;47575;52.054;4.334;2022-09-14T10:44:25;100663.06;;;18.73;100.00
61678;BME280;47575;52.054;4.334;2022-09-14T10:47:05;100659.53;;;18.98;100.00
61678;BME280;47575;52.054;4.334;2022-09-14T10:49:48;100657.50;;;19.14;100.00
61678;BME280;47575;52.054;4.334;2022-09-14T10:52:25;100655.56;;;19.78;100.00
61678;BME280;47575;52.054;4.334;2022-09-14T10:55:13;100659.50;;;20.21;100.00
61678;BME280;47575;52.054;4.334;2022-09-14T10:58:11;100651.28;;;20.70;100.00
61678;BME280;47575;52.054;4.334;2022-09-14T11:00:48;100651.69;;;20.88;100.00
61678;BME280;47575;52.054;4.334;2022-09-14T11:03:26;100648.88;;;20.78;100.00
61678;BME280;47575;52.054;4.334;2022-09-14T11:06:06;100642.47;;;20.92;100.00
61678;BME280;47575;52.054;4.334;2022-09-14T11:08:42;100643.81;;;20.86;100.00
61678;BME280;47575;52.054;4.334;2022-09-14T11:11:25;100638.69;;;20.50;100.00
61678;BME280;47575;52.054;4.334;2022-09-14T11:14:10;100644.44;;;20.79;100.00
61678;BME280;47575;52.054;4.334;2022-09-14T11:16:55;100642.47;;;20.92;100.00
61678;BME280;47575;52.054;4.334;2022-09-14T11:19:34;100643.31;;;20.92;100.00
61678;BME280;47575;52.054;4.334;2022-09-14T11:22:11;100645.16;;;21.03;100.00
61678;BME280;47575;52.054;4.334;2022-09-14T11:24:45;100641.75;;;21.35;100.00
61678;BME280;47575;52.054;4.334;2022-09-14T11:27:21;100644.75;;;21.52;100.00
61678;BME280;47575;52.054;4.334;2022-09-14T11:29:53;100642.81;;;21.54;100.00
61678;BME280;47575;52.054;4.334;2022-09-14T11:32:27;100635.34;;;21.37;100.00
61678;BME280;47575;52.054;4.334;2022-09-14T11:35:00;100640.78;;;21.36;100.00
61678;BME280;47575;52.054;4.334;2022-09-14T11:37:35;100637.16;;;21.48;100.00
61678;BME280;47575;52.054;4.334;2022-09-14T11:40:13;100642.47;;;21.37;100.00
61678;BME280;47575;52.054;4.334;2022-09-14T11:42:45;100637.78;;;22.36;100.00
61678;BME280;47575;52.054;4.334;2022-09-14T11:45:18;100641.19;;;22.06;100.00
61678;BME280;47575;52.054;4.334;2022-09-14T11:47:50;100631.88;;;22.01;100.00
61678;BME280;47575;52.054;4.334;2022-09-14T11:50:22;100624.91;;;21.89;100.00
61678;BME280;47575;52.054;4.334;2022-09-14T11:53:01;100622.88;;;21.81;100.00
61678;BME280;47575;52.054;4.334;2022-09-14T11:55:29;100623.22;;;21.88;100.00
61678;BME280;47575;52.054;4.334;2022-09-14T11:57:57;100627.88;;;22.48;100.00
61678;BME280;47575;52.054;4.334;2022-09-14T12:00:43;100625.75;;;22.93;100.00
61678;BME280;47575;52.054;4.334;2022-09-14T12:03:14;100631.03;;;22.84;100.00
61678;BME280;47575;52.054;4.334;2022-09-14T12:05:42;100622.06;;;23.15;100.00
61678;BME280;47575;52.054;4.334;2022-09-14T12:08:36;100613.88;;;21.93;100.00
61678;BME280;47575;52.054;4.334;2022-09-14T12:11:31;100621.66;;;21.85;100.00
61678;BME280;47575;52.054;4.334;2022-09-14T12:14:31;100620.34;;;22.32;100.00
61678;BME280;47575;52.054;4.334;2022-09-14T12:17:15;100612.13;;;22.66;100.00
61678;BME280;47575;52.054;4.334;2022-09-14T12:19:43;100607.06;;;22.42;100.00
61678;BME280;47575;52.054;4.334;2022-09-14T12:22:29;100606.81;;;22.66;100.00
61678;BME280;47575;52.054;4.334;2022-09-14T12:24:59;100604.09;;;22.35;100.00
61678;BME280;47575;52.054;4.334;2022-09-14T12:27:29;100604.72;;;22.07;100.00
61678;BME280;47575;52.054;4.334;2022-09-14T12:29:57;100599.16;;;22.31;100.00
61678;BME280;47575;52.054;4.334;2022-09-14T12:35:34;100603.69;;;22.19;100.00
61678;BME280;47575;52.054;4.334;2022-09-14T12:44:36;100603.47;;;22.74;100.00
61678;BME280;47575;52.054;4.334;2022-09-14T12:50:15;100599.19;;;22.61;100.00
61678;BME280;47575;52.054;4.334;2022-09-14T12:52:55;100601.13;;;22.80;100.00
61678;BME280;47575;52.054;4.334;2022-09-14T12:55:41;100592.63;;;23.56;100.00
61678;BME280;47575;52.054;4.334;2022-09-14T12:58:24;100587.72;;;23.61;100.00
61678;BME280;47575;52.054;4.334;2022-09-14T13:01:04;100595.31;;;23.56;100.00
61678;BME280;47575;52.054;4.334;2022-09-14T13:03:45;100594.28;;;22.87;100.00
61678;BME280;47575;52.054;4.334;2022-09-14T13:06:13;100595.72;;;22.71;100.00
61678;BME280;47575;52.054;4.334;2022-09-14T13:08:44;100589.13;;;22.96;100.00
61678;BME280;47575;52.054;4.334;2022-09-14T13:11:23;100586.41;;;22.86;100.00
61678;BME280;47575;52.054;4.334;2022-09-14T13:13:52;100587.13;;;22.36;100.00